KOTM/OTM METAR and TAF weather

Enter ICAO airport designator
Station Type Date Time Source
KOTM METAR 2020/04/06 14:10 UTC NOAA

KOTM 061410Z AUTO 17012KT 7SM SCT022 OVC055 10/08 A2998 RMK AO2 T01000083


Station Type Date Time Source
KOTM Decoded METAR 2020/04/06 14:10 UTC NOAA

OTTUMWA INDUSTRIAL AIRPORT, IA, United States (KOTM) 41-06N 092-27W 256M
Apr 06, 2020 - 10:10 AM EDT / 2020.04.06 1410 UTC
Wind: from the S (170 degrees) at 14 MPH (12 KT):0
Visibility: 7 mile(s):0
Sky conditions: overcast
Temperature: 50.0 F (10.0 C)
Dew Point: 46.9 F (8.3 C)
Relative Humidity: 89%
Pressure (altimeter): 29.98 in. Hg (1015 hPa)
ob: KOTM 061410Z AUTO 17012KT 7SM SCT022 OVC055 10/08 A2998 RMK AO2 T01000083
cycle: 14

Station Type Date Time Source
KOTM TAF 2020/04/06 14:39 UTC NOAA

TAF
AMD KOTM 061336Z 0614/0712 15007KT P6SM SCT018 OVC050
FM061500 17010KT P6SM VCSH OVC011
FM070000 16005KT P6SM FEW009 BKN026
FM070400 20007KT P6SM BKN035

Example: see airport list